createdAt,value
2023-04-07T00:00:49.981Z,92703.00
2023-04-07T00:01:50.024Z,92703.00
2023-04-07T00:02:50.011Z,92701.00
2023-04-07T00:03:50.096Z,92701.00
2023-04-07T00:04:50.059Z,92699.00
2023-04-07T00:05:50.015Z,92701.00
2023-04-07T00:06:50.005Z,92699.00
2023-04-07T00:07:56.419Z,92699.00
2023-04-07T00:08:51.898Z,92699.00
2023-04-07T00:09:49.979Z,92697.00
2023-04-07T00:10:49.961Z,92695.00
2023-04-07T00:11:49.957Z,92697.00
2023-04-07T00:12:49.940Z,92697.00
2023-04-07T00:13:49.947Z,92697.00
2023-04-07T00:14:49.983Z,92697.00
2023-04-07T00:15:49.964Z,92699.00
2023-04-07T00:16:49.925Z,92697.00
2023-04-07T00:17:49.938Z,92697.00
2023-04-07T00:18:49.906Z,92695.00
2023-04-07T00:19:49.912Z,92693.00
2023-04-07T00:20:49.892Z,92691.00
2023-04-07T00:21:49.890Z,92691.00
2023-04-07T00:22:49.878Z,92693.00
2023-04-07T00:23:49.874Z,92689.00
2023-04-07T00:24:49.868Z,92689.00
2023-04-07T00:25:49.863Z,92691.00
2023-04-07T00:26:49.857Z,92687.00
2023-04-07T00:27:49.849Z,92687.00
2023-04-07T00:28:49.906Z,92687.00
2023-04-07T00:29:49.827Z,92685.00
2023-04-07T00:30:49.948Z,92685.00
2023-04-07T00:31:49.819Z,92687.00
2023-04-07T00:32:49.946Z,92687.00
2023-04-07T00:33:49.802Z,92687.00
2023-04-07T00:34:49.802Z,92687.00
2023-04-07T00:35:49.883Z,92681.00
2023-04-07T00:36:49.778Z,92683.00
2023-04-07T00:37:49.773Z,92683.00
2023-04-07T00:38:49.838Z,92685.00
2023-04-07T00:39:49.753Z,92685.00
2023-04-07T00:40:49.823Z,92681.00
2023-04-07T00:41:49.741Z,92683.00
2023-04-07T00:42:49.758Z,92677.00
2023-04-07T00:43:49.726Z,92681.00
2023-04-07T00:44:49.722Z,92677.00
2023-04-07T00:45:49.722Z,92679.00
2023-04-07T00:46:49.713Z,92679.00
2023-04-07T00:47:49.729Z,92677.00
2023-04-07T00:48:49.699Z,92677.00
2023-04-07T00:49:49.681Z,92675.00
2023-04-07T00:50:49.697Z,92675.00
2023-04-07T00:51:49.675Z,92674.00
2023-04-07T00:52:49.771Z,92672.00
2023-04-07T00:53:49.658Z,92670.00
2023-04-07T00:54:49.666Z,92670.00
2023-04-07T00:55:49.659Z,92670.00
2023-04-07T00:56:49.639Z,92670.00
2023-04-07T00:57:49.636Z,92664.00
2023-04-07T00:58:49.623Z,92668.00
2023-04-07T00:59:49.615Z,92664.00
2023-04-07T01:00:49.619Z,92664.00
2023-04-07T01:01:49.760Z,92666.00
2023-04-07T01:02:49.803Z,92662.00
2023-04-07T01:03:49.804Z,92660.00
2023-04-07T01:04:49.687Z,92660.00
2023-04-07T01:05:49.618Z,92656.00
2023-04-07T01:06:49.703Z,92654.00
2023-04-07T01:07:49.649Z,92654.00
2023-04-07T01:08:49.634Z,92652.00
2023-04-07T01:09:49.631Z,92650.00
2023-04-07T01:10:49.634Z,92648.00
2023-04-07T01:11:49.640Z,92644.00
2023-04-07T01:12:49.637Z,92646.00
2023-04-07T01:13:49.635Z,92644.00
2023-04-07T01:14:49.656Z,92644.00
2023-04-07T01:15:49.708Z,92642.00
2023-04-07T01:16:49.663Z,92644.00
2023-04-07T01:17:49.722Z,92642.00
2023-04-07T01:18:49.650Z,92642.00
2023-04-07T01:19:49.653Z,92640.00
2023-04-07T01:20:49.653Z,92642.00
2023-04-07T01:21:49.651Z,92642.00
2023-04-07T01:22:49.653Z,92640.00
2023-04-07T01:23:49.666Z,92638.00
2023-04-07T01:24:49.929Z,92642.00
2023-04-07T01:25:49.684Z,92642.00
2023-04-07T01:26:49.736Z,92642.00
2023-04-07T01:27:49.654Z,92646.00
2023-04-07T01:28:49.648Z,92646.00
2023-04-07T01:29:50.425Z,92644.00
2023-04-07T01:30:49.658Z,92644.00
2023-04-07T01:31:49.704Z,92646.00
2023-04-07T01:32:49.712Z,92640.00
2023-04-07T01:33:49.670Z,92646.00
2023-04-07T01:34:49.658Z,92648.00
2023-04-07T01:35:49.667Z,92646.00
2023-04-07T01:36:49.679Z,92648.00
2023-04-07T01:37:49.675Z,92646.00
2023-04-07T01:38:49.692Z,92646.00
2023-04-07T01:39:49.688Z,92646.00
2023-04-07T01:40:49.710Z,92650.00
2023-04-07T01:41:49.697Z,92646.00
2023-04-07T01:42:49.698Z,92646.00
2023-04-07T01:43:49.698Z,92648.00
2023-04-07T01:44:49.697Z,92646.00
2023-04-07T01:45:49.688Z,92648.00
2023-04-07T01:46:49.716Z,92648.00
2023-04-07T01:47:50.452Z,92648.00
2023-04-07T01:48:49.693Z,92648.00
2023-04-07T01:49:50.474Z,92650.00
2023-04-07T01:50:49.687Z,92652.00
2023-04-07T01:51:49.683Z,92652.00
2023-04-07T01:52:49.687Z,92654.00
2023-04-07T01:53:49.682Z,92656.00
2023-04-07T01:54:49.686Z,92654.00
2023-04-07T01:55:49.684Z,92656.00
2023-04-07T01:56:49.697Z,92656.00
2023-04-07T01:57:49.735Z,92654.00
2023-04-07T01:58:49.697Z,92652.00
2023-04-07T01:59:49.681Z,92650.00
2023-04-07T02:00:49.749Z,92654.00
2023-04-07T02:01:49.765Z,92652.00
2023-04-07T02:02:49.825Z,92652.00
2023-04-07T02:03:49.812Z,92648.00
2023-04-07T02:04:49.683Z,92648.00
2023-04-07T02:05:49.705Z,92650.00
2023-04-07T02:06:49.703Z,92646.00
2023-04-07T02:07:49.700Z,92646.00
2023-04-07T02:08:49.698Z,92646.00
2023-04-07T02:09:49.744Z,92648.00
2023-04-07T02:10:49.700Z,92648.00
2023-04-07T02:11:49.707Z,92648.00
2023-04-07T02:12:49.693Z,92646.00
2023-04-07T02:13:49.777Z,92650.00
2023-04-07T02:14:49.700Z,92646.00
2023-04-07T02:15:49.705Z,92642.00
2023-04-07T02:16:49.761Z,92640.00
2023-04-07T02:17:49.821Z,92640.00
2023-04-07T02:18:49.722Z,92640.00
2023-04-07T02:19:49.714Z,92640.00
2023-04-07T02:20:49.740Z,92640.00
2023-04-07T02:21:49.719Z,92638.00
2023-04-07T02:22:49.770Z,92638.00
2023-04-07T02:23:49.811Z,92632.00
2023-04-07T02:24:49.729Z,92634.00
2023-04-07T02:25:49.968Z,92630.00
2023-04-07T02:26:49.742Z,92630.00
2023-04-07T02:27:49.749Z,92630.00
2023-04-07T02:28:49.758Z,92628.00
2023-04-07T02:29:49.749Z,92627.00
2023-04-07T02:30:49.765Z,92627.00
2023-04-07T02:31:49.821Z,92627.00
2023-04-07T02:32:49.804Z,92623.00
2023-04-07T02:33:49.776Z,92621.00
2023-04-07T02:34:49.776Z,92619.00
2023-04-07T02:35:49.795Z,92615.00
2023-04-07T02:36:49.827Z,92611.00
2023-04-07T02:37:49.806Z,92611.00
2023-04-07T02:38:49.812Z,92609.00
2023-04-07T02:39:49.795Z,92609.00
2023-04-07T02:40:49.800Z,92609.00
2023-04-07T02:41:49.808Z,92609.00
2023-04-07T02:42:49.815Z,92611.00
2023-04-07T02:43:49.832Z,92609.00
2023-04-07T02:44:49.802Z,92611.00
2023-04-07T02:45:49.854Z,92609.00
2023-04-07T02:46:49.821Z,92611.00
2023-04-07T02:47:49.845Z,92609.00
2023-04-07T02:48:49.823Z,92607.00
2023-04-07T02:49:49.836Z,92607.00
2023-04-07T02:50:49.857Z,92605.00
2023-04-07T02:51:49.835Z,92599.00
2023-04-07T02:52:49.826Z,92599.00
2023-04-07T02:53:49.892Z,92601.00
2023-04-07T02:54:49.856Z,92601.00
2023-04-07T02:55:49.860Z,92605.00
2023-04-07T02:56:49.906Z,92601.00
2023-04-07T02:57:49.862Z,92601.00
2023-04-07T02:58:49.863Z,92599.00
2023-04-07T02:59:49.885Z,92599.00
2023-04-07T03:00:50.891Z,92599.00
2023-04-07T03:01:49.952Z,92601.00
2023-04-07T03:02:49.964Z,92601.00
2023-04-07T03:03:50.078Z,92603.00
2023-04-07T03:04:49.924Z,92601.00
2023-04-07T03:05:49.960Z,92601.00
2023-04-07T03:06:49.940Z,92599.00
2023-04-07T03:07:49.940Z,92601.00
2023-04-07T03:08:49.944Z,92599.00
2023-04-07T03:09:49.951Z,92599.00
2023-04-07T03:10:49.964Z,92595.00
2023-04-07T03:11:49.985Z,92597.00
2023-04-07T03:12:49.986Z,92595.00
2023-04-07T03:13:50.142Z,92593.00
2023-04-07T03:14:49.994Z,92593.00
2023-04-07T03:15:50.014Z,92589.00
2023-04-07T03:16:50.058Z,92593.00
2023-04-07T03:17:50.037Z,92591.00
2023-04-07T03:18:50.031Z,92591.00
2023-04-07T03:19:50.053Z,92587.00
2023-04-07T03:20:50.054Z,92587.00
2023-04-07T03:21:50.058Z,92589.00
2023-04-07T03:22:50.053Z,92587.00
2023-04-07T03:23:50.065Z,92587.00
2023-04-07T03:24:50.073Z,92585.00
2023-04-07T03:25:50.094Z,92585.00
2023-04-07T03:26:50.097Z,92585.00
2023-04-07T03:27:50.148Z,92585.00
2023-04-07T03:28:50.109Z,92583.00
2023-04-07T03:29:50.118Z,92583.00
2023-04-07T03:30:50.169Z,92579.00
2023-04-07T03:31:50.174Z,92577.00
2023-04-07T03:32:50.213Z,92577.00
2023-04-07T03:33:50.207Z,92573.00
2023-04-07T03:34:50.178Z,92579.00
2023-04-07T03:35:50.184Z,92575.00
2023-04-07T03:36:50.975Z,92579.00
2023-04-07T03:37:50.188Z,92577.00
2023-04-07T03:38:50.199Z,92577.00
2023-04-07T03:39:50.910Z,92566.00
2023-04-07T03:40:50.215Z,92573.00
2023-04-07T03:41:50.221Z,92564.00
2023-04-07T03:42:50.998Z,92573.00
2023-04-07T03:43:50.379Z,92566.00
2023-04-07T03:44:50.972Z,92573.00
2023-04-07T03:45:50.256Z,92573.00
2023-04-07T03:46:50.982Z,92573.00
2023-04-07T03:47:50.424Z,92573.00
2023-04-07T03:48:50.284Z,92566.00
2023-04-07T03:49:50.300Z,92562.00
2023-04-07T03:50:50.485Z,92564.00
2023-04-07T03:51:50.413Z,92564.00
2023-04-07T03:52:50.336Z,92558.00
2023-04-07T03:53:50.548Z,92560.00
2023-04-07T03:54:50.373Z,92560.00
2023-04-07T03:55:50.391Z,92558.00
2023-04-07T03:56:50.398Z,92560.00
2023-04-07T03:57:50.398Z,92560.00
2023-04-07T03:58:50.411Z,92558.00
2023-04-07T03:59:50.427Z,92558.00
2023-04-07T04:00:50.434Z,92556.00
2023-04-07T04:01:50.452Z,92560.00
2023-04-07T04:02:50.521Z,92558.00
2023-04-07T04:03:50.741Z,92556.00
2023-04-07T04:04:50.566Z,92556.00
2023-04-07T04:05:50.563Z,92558.00
2023-04-07T04:06:50.503Z,92556.00
2023-04-07T04:07:50.547Z,92556.00
2023-04-07T04:08:50.634Z,92558.00
2023-04-07T04:09:50.628Z,92560.00
2023-04-07T04:10:50.589Z,92562.00
2023-04-07T04:11:51.488Z,92562.00
2023-04-07T04:12:50.612Z,92562.00
2023-04-07T04:13:50.656Z,92562.00
2023-04-07T04:14:50.629Z,92560.00
2023-04-07T04:15:50.688Z,92560.00
2023-04-07T04:16:50.653Z,92558.00
2023-04-07T04:17:50.726Z,92560.00
2023-04-07T04:18:50.679Z,92560.00
2023-04-07T04:19:50.691Z,92556.00
2023-04-07T04:20:50.721Z,92560.00
2023-04-07T04:21:50.808Z,92562.00
2023-04-07T04:22:50.738Z,92560.00
2023-04-07T04:23:50.878Z,92556.00
2023-04-07T04:24:50.776Z,92554.00
2023-04-07T04:25:50.812Z,92554.00
2023-04-07T04:26:50.813Z,92550.00
2023-04-07T04:27:50.832Z,92554.00
2023-04-07T04:28:50.854Z,92552.00
2023-04-07T04:29:50.862Z,92554.00
2023-04-07T04:30:50.879Z,92552.00
2023-04-07T04:31:50.958Z,92554.00
2023-04-07T04:32:50.921Z,92554.00
2023-04-07T04:33:51.076Z,92554.00
2023-04-07T04:34:50.941Z,92552.00
2023-04-07T04:35:50.953Z,92552.00
2023-04-07T04:36:50.978Z,92554.00
2023-04-07T04:37:50.976Z,92554.00
2023-04-07T04:38:50.995Z,92554.00
2023-04-07T04:39:51.002Z,92556.00
2023-04-07T04:40:51.021Z,92556.00
2023-04-07T04:41:51.042Z,92554.00
2023-04-07T04:42:51.065Z,92556.00
2023-04-07T04:43:51.083Z,92556.00
2023-04-07T04:44:51.105Z,92556.00
2023-04-07T04:45:51.138Z,92554.00
2023-04-07T04:46:51.178Z,92556.00
2023-04-07T04:47:51.151Z,92558.00
2023-04-07T04:48:51.166Z,92560.00
2023-04-07T04:49:51.180Z,92560.00
2023-04-07T04:50:51.188Z,92562.00
2023-04-07T04:51:51.222Z,92564.00
2023-04-07T04:52:51.243Z,92564.00
2023-04-07T04:53:51.569Z,92566.00
2023-04-07T04:54:51.262Z,92566.00
2023-04-07T04:55:51.279Z,92573.00
2023-04-07T04:56:51.293Z,92573.00
2023-04-07T04:57:51.311Z,92566.00
2023-04-07T04:58:51.330Z,92573.00
2023-04-07T04:59:51.342Z,92573.00
2023-04-07T05:00:51.413Z,92573.00
2023-04-07T05:01:51.457Z,92566.00
2023-04-07T05:02:51.584Z,92566.00
2023-04-07T05:03:51.725Z,92573.00
2023-04-07T05:04:51.670Z,92579.00
2023-04-07T05:05:51.487Z,92577.00
2023-04-07T05:06:51.499Z,92575.00
2023-04-07T05:07:51.531Z,92577.00
2023-04-07T05:08:51.629Z,92577.00
2023-04-07T05:09:51.562Z,92577.00
2023-04-07T05:10:51.585Z,92579.00
2023-04-07T05:11:51.622Z,92579.00
2023-04-07T05:12:51.659Z,92579.00
2023-04-07T05:13:51.943Z,92577.00
2023-04-07T05:14:51.697Z,92579.00
2023-04-07T05:15:51.761Z,92579.00
2023-04-07T05:16:51.746Z,92581.00
2023-04-07T05:17:51.822Z,92573.00
2023-04-07T05:18:51.787Z,92577.00
2023-04-07T05:19:51.810Z,92581.00
2023-04-07T05:20:51.829Z,92579.00
2023-04-07T05:21:51.854Z,92579.00
2023-04-07T05:22:51.868Z,92579.00
2023-04-07T05:23:52.097Z,92581.00
2023-04-07T05:24:51.920Z,92573.00
2023-04-07T05:25:51.927Z,92579.00
2023-04-07T05:26:51.975Z,92579.00
2023-04-07T05:27:51.978Z,92579.00
2023-04-07T05:28:51.995Z,92566.00
2023-04-07T05:29:52.016Z,92566.00
2023-04-07T05:30:52.030Z,92573.00
2023-04-07T05:31:53.141Z,92564.00
2023-04-07T05:32:52.119Z,92564.00
2023-04-07T05:33:52.498Z,92564.00
2023-04-07T05:34:52.122Z,92573.00
2023-04-07T05:35:52.183Z,92560.00
2023-04-07T05:36:52.176Z,92560.00
2023-04-07T05:37:52.173Z,92556.00
2023-04-07T05:38:52.200Z,92558.00
2023-04-07T05:39:52.225Z,92556.00
2023-04-07T05:40:52.252Z,92560.00
2023-04-07T05:41:52.295Z,92556.00
2023-04-07T05:42:52.286Z,92560.00
2023-04-07T05:43:52.569Z,92558.00
2023-04-07T05:44:52.328Z,92558.00
2023-04-07T05:45:52.435Z,92556.00
2023-04-07T05:46:52.447Z,92554.00
2023-04-07T05:47:53.153Z,92552.00
2023-04-07T05:48:52.419Z,92552.00
2023-04-07T05:49:52.416Z,92552.00
2023-04-07T05:50:52.513Z,92550.00
2023-04-07T05:51:52.470Z,92550.00
2023-04-07T05:52:52.489Z,92550.00
2023-04-07T05:53:52.787Z,92552.00
2023-04-07T05:54:52.529Z,92554.00
2023-04-07T05:55:52.548Z,92558.00
2023-04-07T05:56:52.573Z,92556.00
2023-04-07T05:57:52.598Z,92560.00
2023-04-07T05:58:52.614Z,92560.00
2023-04-07T05:59:52.640Z,92560.00
2023-04-07T06:00:52.676Z,92560.00
2023-04-07T06:01:52.734Z,92558.00
2023-04-07T06:02:52.922Z,92556.00
2023-04-07T06:03:52.846Z,92556.00
2023-04-07T06:04:52.765Z,92554.00
2023-04-07T06:05:52.774Z,92556.00
2023-04-07T06:06:52.784Z,92554.00
2023-04-07T06:07:52.803Z,92556.00
2023-04-07T06:08:52.826Z,92554.00
2023-04-07T06:09:52.892Z,92556.00
2023-04-07T06:10:52.861Z,92554.00
2023-04-07T06:11:52.894Z,92554.00
2023-04-07T06:12:52.909Z,92552.00
2023-04-07T06:13:52.926Z,92552.00
2023-04-07T06:14:53.550Z,92552.00
2023-04-07T06:15:52.963Z,92550.00
2023-04-07T06:16:53.001Z,92552.00
2023-04-07T06:17:53.020Z,92550.00
2023-04-07T06:18:52.996Z,92552.00
2023-04-07T06:19:53.043Z,92548.00
2023-04-07T06:20:53.051Z,92548.00
2023-04-07T06:21:53.065Z,92546.00
2023-04-07T06:22:53.078Z,92548.00
2023-04-07T06:23:53.097Z,92548.00
2023-04-07T06:24:53.126Z,92548.00
2023-04-07T06:25:53.291Z,92548.00
2023-04-07T06:26:53.151Z,92550.00
2023-04-07T06:27:53.167Z,92548.00
2023-04-07T06:28:53.171Z,92548.00
2023-04-07T06:29:53.171Z,92550.00
2023-04-07T06:30:53.307Z,92552.00
2023-04-07T06:31:53.207Z,92552.00
2023-04-07T06:32:53.317Z,92552.00
2023-04-07T06:33:53.237Z,92556.00
2023-04-07T06:34:53.253Z,92556.00
2023-04-07T06:35:53.256Z,92554.00
2023-04-07T06:36:53.260Z,92552.00
2023-04-07T06:37:53.285Z,92548.00
2023-04-07T06:38:53.320Z,92548.00
2023-04-07T06:39:53.301Z,92546.00
2023-04-07T06:40:53.344Z,92548.00
2023-04-07T06:41:53.320Z,92544.00
2023-04-07T06:42:53.337Z,92542.00
2023-04-07T06:43:53.327Z,92542.00
2023-04-07T06:44:53.325Z,92540.00
2023-04-07T06:45:53.377Z,92542.00
2023-04-07T06:46:53.363Z,92538.00
2023-04-07T06:47:53.366Z,92538.00
2023-04-07T06:48:53.388Z,92538.00
2023-04-07T06:49:53.419Z,92540.00
2023-04-07T06:50:53.450Z,92538.00
2023-04-07T06:51:53.500Z,92536.00
2023-04-07T06:52:53.576Z,92536.00
2023-04-07T06:53:53.640Z,92533.00
2023-04-07T06:54:53.676Z,92531.00
2023-04-07T06:55:53.722Z,92533.00
2023-04-07T06:56:54.649Z,92529.00
2023-04-07T06:57:53.795Z,92531.00
2023-04-07T06:58:53.824Z,92529.00
2023-04-07T06:59:53.835Z,92527.00
2023-04-07T07:00:53.866Z,92527.00
2023-04-07T07:01:53.979Z,92525.00
2023-04-07T07:02:54.036Z,92521.00
2023-04-07T07:03:54.080Z,92519.00
2023-04-07T07:04:53.955Z,92519.00
2023-04-07T07:05:53.981Z,92519.00
2023-04-07T07:06:54.053Z,92521.00
2023-04-07T07:07:54.133Z,92519.00
2023-04-07T07:08:54.075Z,92519.00
2023-04-07T07:09:54.075Z,92519.00
2023-04-07T07:10:54.129Z,92517.00
2023-04-07T07:11:54.110Z,92517.00
2023-04-07T07:12:54.108Z,92515.00
2023-04-07T07:13:54.107Z,92513.00
2023-04-07T07:14:54.094Z,92513.00
2023-04-07T07:15:54.238Z,92513.00
2023-04-07T07:16:54.129Z,92515.00
2023-04-07T07:17:54.211Z,92513.00
2023-04-07T07:18:54.165Z,92515.00
2023-04-07T07:19:54.180Z,92513.00
2023-04-07T07:20:54.212Z,92513.00
2023-04-07T07:21:54.254Z,92511.00
2023-04-07T07:22:54.322Z,92509.00
2023-04-07T07:23:54.393Z,92509.00
2023-04-07T07:24:54.447Z,92507.00
2023-04-07T07:25:54.597Z,92503.00
2023-04-07T07:26:54.561Z,92503.00
2023-04-07T07:27:54.613Z,92503.00
2023-04-07T07:28:54.647Z,92505.00
2023-04-07T07:29:54.703Z,92503.00
2023-04-07T07:30:54.732Z,92501.00
2023-04-07T07:31:55.243Z,92503.00
2023-04-07T07:32:54.845Z,92497.00
2023-04-07T07:33:54.843Z,92493.00
2023-04-07T07:34:54.854Z,92493.00
2023-04-07T07:35:54.897Z,92495.00
2023-04-07T07:36:54.900Z,92491.00
2023-04-07T07:37:54.930Z,92489.00
2023-04-07T07:38:54.952Z,92493.00
2023-04-07T07:39:55.053Z,92487.00
2023-04-07T07:40:54.960Z,92493.00
2023-04-07T07:41:54.980Z,92489.00
2023-04-07T07:42:54.984Z,92485.00
2023-04-07T07:43:55.005Z,92489.00
2023-04-07T07:44:54.977Z,92485.00
2023-04-07T07:45:54.979Z,92483.00
2023-04-07T07:46:55.077Z,92481.00
2023-04-07T07:47:54.994Z,92480.00
2023-04-07T07:48:54.985Z,92478.00
2023-04-07T07:49:55.576Z,92478.00
2023-04-07T07:50:55.044Z,92476.00
2023-04-07T07:51:55.113Z,92476.00
2023-04-07T07:52:55.173Z,92472.00
2023-04-07T07:53:55.229Z,92470.00
2023-04-07T07:54:55.279Z,92474.00
2023-04-07T07:55:55.316Z,92468.00
2023-04-07T07:56:55.354Z,92466.00
2023-04-07T07:57:55.370Z,92464.00
2023-04-07T07:58:55.984Z,92464.00
2023-04-07T07:59:55.408Z,92466.00
2023-04-07T08:00:55.421Z,92462.00
2023-04-07T08:01:55.467Z,92454.00
2023-04-07T08:02:55.493Z,92456.00
2023-04-07T08:03:55.549Z,92458.00
2023-04-07T08:04:55.575Z,92452.00
2023-04-07T08:05:55.545Z,92454.00
2023-04-07T08:06:55.529Z,92450.00
2023-04-07T08:07:55.606Z,92456.00
2023-04-07T08:08:55.658Z,92448.00
2023-04-07T08:09:55.709Z,92446.00
2023-04-07T08:10:55.748Z,92444.00
2023-04-07T08:11:55.804Z,92442.00
2023-04-07T08:12:55.851Z,92444.00
2023-04-07T08:13:55.879Z,92438.00
2023-04-07T08:14:55.931Z,92442.00
2023-04-07T08:15:56.019Z,92440.00
2023-04-07T08:16:56.049Z,92438.00
2023-04-07T08:17:56.325Z,92438.00
2023-04-07T08:18:56.148Z,92436.00
2023-04-07T08:19:56.203Z,92433.00
2023-04-07T08:20:56.586Z,92433.00
2023-04-07T08:21:57.090Z,92433.00
2023-04-07T08:22:56.353Z,92434.00
2023-04-07T08:23:56.431Z,92434.00
2023-04-07T08:24:56.421Z,92434.00
2023-04-07T08:25:56.441Z,92433.00
2023-04-07T08:26:56.453Z,92429.00
2023-04-07T08:27:56.474Z,92429.00
2023-04-07T08:28:56.509Z,92425.00
2023-04-07T08:29:56.507Z,92425.00
2023-04-07T08:30:56.534Z,92423.00
2023-04-07T08:31:56.586Z,92421.00
2023-04-07T08:32:56.618Z,92423.00
2023-04-07T08:33:57.098Z,92419.00
2023-04-07T08:34:56.700Z,92419.00
2023-04-07T08:35:56.753Z,92423.00
2023-04-07T08:36:56.864Z,92417.00
2023-04-07T08:37:56.831Z,92417.00
2023-04-07T08:38:56.846Z,92415.00
2023-04-07T08:39:56.826Z,92417.00
2023-04-07T08:40:56.855Z,92413.00
2023-04-07T08:41:56.859Z,92415.00
2023-04-07T08:42:56.847Z,92415.00
2023-04-07T08:43:56.851Z,92411.00
2023-04-07T08:44:56.864Z,92413.00
2023-04-07T08:45:57.021Z,92413.00
2023-04-07T08:46:56.999Z,92411.00
2023-04-07T08:47:57.084Z,92409.00
2023-04-07T08:48:56.972Z,92407.00
2023-04-07T08:49:56.983Z,92409.00
2023-04-07T08:50:56.996Z,92407.00
2023-04-07T08:51:56.999Z,92407.00
2023-04-07T08:52:57.011Z,92405.00
2023-04-07T08:53:57.028Z,92405.00
2023-04-07T08:54:57.081Z,92403.00
2023-04-07T08:55:57.069Z,92403.00
2023-04-07T08:56:57.066Z,92401.00
2023-04-07T08:57:57.088Z,92403.00
2023-04-07T08:58:57.120Z,92397.00
2023-04-07T08:59:57.148Z,92399.00
2023-04-07T09:00:57.213Z,92395.00
2023-04-07T09:01:57.292Z,92395.00
2023-04-07T09:02:57.287Z,92395.00
2023-04-07T09:03:57.272Z,92395.00
2023-04-07T09:04:57.286Z,92393.00
2023-04-07T09:05:57.346Z,92391.00
2023-04-07T09:06:57.318Z,92391.00
2023-04-07T09:07:57.335Z,92389.00
2023-04-07T09:08:57.360Z,92389.00
2023-04-07T09:09:57.383Z,92384.00
2023-04-07T09:10:57.404Z,92384.00
2023-04-07T09:11:57.430Z,92384.00
2023-04-07T09:12:57.476Z,92382.00
2023-04-07T09:13:57.541Z,92382.00
2023-04-07T09:14:57.560Z,92380.00
2023-04-07T09:15:57.616Z,92380.00
2023-04-07T09:16:57.722Z,92380.00
2023-04-07T09:17:57.734Z,92378.00
2023-04-07T09:18:57.727Z,92376.00
2023-04-07T09:19:57.792Z,92374.00
2023-04-07T09:20:57.870Z,92376.00
2023-04-07T09:21:57.865Z,92370.00
2023-04-07T09:22:57.910Z,92368.00
2023-04-07T09:23:57.956Z,92368.00
2023-04-07T09:24:58.017Z,92364.00
2023-04-07T09:25:58.057Z,92368.00
2023-04-07T09:26:58.154Z,92364.00
2023-04-07T09:27:58.156Z,92360.00
2023-04-07T09:28:58.209Z,92358.00
2023-04-07T09:29:58.256Z,92356.00
2023-04-07T09:30:58.278Z,92356.00
2023-04-07T09:31:58.354Z,92354.00
2023-04-07T09:32:58.381Z,92352.00
2023-04-07T09:33:58.398Z,92350.00
2023-04-07T09:34:58.560Z,92350.00
2023-04-07T09:35:58.524Z,92344.00
2023-04-07T09:36:58.576Z,92342.00
2023-04-07T09:37:58.543Z,92342.00
2023-04-07T09:38:58.586Z,92338.00
2023-04-07T09:39:58.628Z,92338.00
2023-04-07T09:40:58.653Z,92338.00
2023-04-07T09:41:59.613Z,92334.00
2023-04-07T09:42:58.701Z,92332.00
2023-04-07T09:43:58.757Z,92334.00
2023-04-07T09:44:58.787Z,92331.00
2023-04-07T09:45:58.834Z,92331.00
2023-04-07T09:46:59.618Z,92331.00
2023-04-07T09:47:58.914Z,92331.00
2023-04-07T09:48:58.897Z,92325.00
2023-04-07T09:49:58.924Z,92321.00
2023-04-07T09:50:58.933Z,92319.00
2023-04-07T09:51:58.955Z,92321.00
2023-04-07T09:52:58.993Z,92319.00
2023-04-07T09:53:59.034Z,92317.00
2023-04-07T09:54:59.622Z,92307.00
2023-04-07T09:55:59.120Z,92307.00
2023-04-07T09:56:59.142Z,92309.00
2023-04-07T09:57:59.186Z,92305.00
2023-04-07T09:58:59.217Z,92303.00
2023-04-07T09:59:59.261Z,92303.00
2023-04-07T10:00:59.319Z,92303.00
2023-04-07T10:01:59.406Z,92299.00
2023-04-07T10:02:59.476Z,92303.00
2023-04-07T10:03:59.397Z,92301.00
2023-04-07T10:04:59.432Z,92298.00
2023-04-07T10:05:59.475Z,92298.00
2023-04-07T10:06:59.504Z,92296.00
2023-04-07T10:07:59.603Z,92290.00
2023-04-07T10:08:59.580Z,92290.00
2023-04-07T10:09:59.613Z,92286.00
2023-04-07T10:10:59.636Z,92288.00
2023-04-07T10:11:59.667Z,92284.00
2023-04-07T10:12:59.696Z,92284.00
2023-04-07T10:14:00.710Z,92282.00
2023-04-07T10:14:59.746Z,92280.00
2023-04-07T10:15:59.777Z,92282.00
2023-04-07T10:16:59.917Z,92274.00
2023-04-07T10:17:59.865Z,92278.00
2023-04-07T10:18:59.851Z,92274.00
2023-04-07T10:19:59.874Z,92274.00
2023-04-07T10:20:59.910Z,92276.00
2023-04-07T10:21:59.923Z,92268.00
2023-04-07T10:22:59.940Z,92270.00
2023-04-07T10:23:59.982Z,92270.00
2023-04-07T10:25:00.010Z,92266.00
2023-04-07T10:26:00.055Z,92264.00
2023-04-07T10:27:00.079Z,92262.00
2023-04-07T10:28:00.186Z,92264.00
2023-04-07T10:29:00.141Z,92262.00
2023-04-07T10:30:00.242Z,92258.00
2023-04-07T10:31:00.219Z,92256.00
2023-04-07T10:32:00.221Z,92254.00
2023-04-07T10:33:00.348Z,92254.00
2023-04-07T10:34:00.361Z,92254.00
2023-04-07T10:35:00.337Z,92248.00
2023-04-07T10:36:00.430Z,92248.00
2023-04-07T10:37:00.408Z,92250.00
2023-04-07T10:38:00.506Z,92252.00
2023-04-07T10:39:00.492Z,92247.00
2023-04-07T10:40:00.515Z,92243.00
2023-04-07T10:41:00.563Z,92248.00
2023-04-07T10:42:00.653Z,92245.00
2023-04-07T10:43:00.613Z,92239.00
2023-04-07T10:44:00.642Z,92239.00
2023-04-07T10:45:01.034Z,92239.00
2023-04-07T10:46:00.737Z,92237.00
2023-04-07T10:47:00.741Z,92237.00
2023-04-07T10:48:01.704Z,92233.00
2023-04-07T10:49:00.803Z,92233.00
2023-04-07T10:50:00.841Z,92229.00
2023-04-07T10:51:01.149Z,92229.00
2023-04-07T10:52:00.916Z,92225.00
2023-04-07T10:53:01.039Z,92223.00
2023-04-07T10:54:00.983Z,92221.00
2023-04-07T10:55:01.023Z,92221.00
2023-04-07T10:56:01.168Z,92219.00
2023-04-07T10:57:01.106Z,92219.00
2023-04-07T10:58:01.162Z,92219.00
2023-04-07T10:59:01.191Z,92217.00
2023-04-07T11:00:01.245Z,92215.00
2023-04-07T11:01:01.307Z,92213.00
2023-04-07T11:02:01.394Z,92215.00
2023-04-07T11:03:01.452Z,92213.00
2023-04-07T11:04:01.621Z,92209.00
2023-04-07T11:05:01.482Z,92209.00
2023-04-07T11:06:01.562Z,92211.00
2023-04-07T11:07:01.609Z,92207.00
2023-04-07T11:08:01.800Z,92209.00
2023-04-07T11:09:01.710Z,92207.00
2023-04-07T11:10:01.765Z,92207.00
2023-04-07T11:11:01.830Z,92209.00
2023-04-07T11:12:01.886Z,92211.00
2023-04-07T11:13:01.954Z,92205.00
2023-04-07T11:14:01.999Z,92205.00
2023-04-07T11:15:02.060Z,92203.00
2023-04-07T11:16:02.159Z,92201.00
2023-04-07T11:17:02.144Z,92200.00
2023-04-07T11:18:02.221Z,92203.00
2023-04-07T11:19:02.252Z,92201.00
2023-04-07T11:20:02.360Z,92201.00
2023-04-07T11:21:02.360Z,92198.00
2023-04-07T11:22:02.392Z,92198.00
2023-04-07T11:23:02.421Z,92198.00
2023-04-07T11:24:02.412Z,92198.00
2023-04-07T11:25:02.406Z,92196.00
2023-04-07T11:26:02.413Z,92198.00
2023-04-07T11:27:02.415Z,92198.00
2023-04-07T11:28:02.412Z,92192.00
2023-04-07T11:29:02.408Z,92194.00
2023-04-07T11:30:02.421Z,92194.00
2023-04-07T11:31:02.442Z,92192.00
2023-04-07T11:32:02.429Z,92192.00
2023-04-07T11:33:02.440Z,92190.00
2023-04-07T11:34:02.445Z,92190.00
2023-04-07T11:35:02.450Z,92192.00
2023-04-07T11:36:02.493Z,92190.00
2023-04-07T11:37:02.477Z,92190.00
2023-04-07T11:38:02.562Z,92192.00
2023-04-07T11:39:02.549Z,92190.00
2023-04-07T11:40:02.491Z,92190.00
2023-04-07T11:41:02.562Z,92190.00
2023-04-07T11:42:02.531Z,92188.00
2023-04-07T11:43:02.552Z,92186.00
2023-04-07T11:44:03.172Z,92184.00
2023-04-07T11:45:02.582Z,92184.00